createdAt,value
2023-05-10T00:25:30.460Z,95.20
2023-05-10T00:50:54.408Z,98.70
2023-05-10T01:10:51.314Z,97.00
2023-05-10T01:41:35.982Z,97.90
2023-05-10T02:12:09.713Z,99.90
2023-05-10T02:16:30.520Z,99.90
2023-05-10T02:46:57.108Z,99.90
2023-05-10T03:17:27.933Z,97.90
2023-05-10T04:08:36.019Z,89.30
2023-05-10T04:28:01.553Z,84.20
2023-05-10T04:48:20.689Z,82.10
2023-05-10T05:38:32.304Z,72.30
2023-05-10T06:03:53.159Z,69.70
2023-05-10T06:55:13.891Z,49.60
2023-05-10T07:25:16.562Z,43.90
2023-05-10T08:01:02.088Z,38.90
2023-05-10T08:36:33.480Z,36.60
2023-05-10T09:01:54.644Z,37.40
2023-05-10T09:26:38.256Z,35.60
2023-05-10T09:47:10.412Z,36.10
2023-05-10T10:07:31.556Z,37.00
2023-05-10T10:37:52.316Z,35.70
2023-05-10T11:08:46.760Z,35.70
2023-05-10T11:13:05.825Z,35.50
2023-05-10T11:38:31.585Z,36.40
2023-05-10T11:59:28.204Z,36.40
2023-05-10T12:59:59.649Z,36.00
2023-05-10T14:46:21.026Z,33.50
2023-05-10T15:11:46.808Z,34.20
2023-05-10T15:31:51.566Z,33.40
2023-05-10T16:02:31.388Z,32.30
2023-05-10T16:27:43.506Z,34.20
2023-05-10T16:53:05.791Z,33.60
2023-05-10T17:13:17.648Z,35.30
2023-05-10T17:43:52.129Z,35.70
2023-05-10T18:14:32.436Z,36.50
2023-05-10T18:18:54.075Z,36.50
2023-05-10T18:39:22.600Z,37.50
2023-05-10T19:04:59.715Z,38.30
2023-05-10T19:40:27.072Z,39.70
